sensor_id;sensor_type;location;lat;lon;timestamp;temperature;humidity
28959;DHT22;16066;0.000;0.000;2023-08-24T00:01:26;23.90;54.30
28959;DHT22;16066;0.000;0.000;2023-08-24T00:03:52;23.80;54.30
28959;DHT22;16066;0.000;0.000;2023-08-24T00:06:18;23.80;54.50
28959;DHT22;16066;0.000;0.000;2023-08-24T00:08:43;23.80;54.30
28959;DHT22;16066;0.000;0.000;2023-08-24T00:11:10;23.80;54.30
28959;DHT22;16066;0.000;0.000;2023-08-24T00:13:43;23.70;54.30
28959;DHT22;16066;0.000;0.000;2023-08-24T00:16:15;23.70;54.30
28959;DHT22;16066;0.000;0.000;2023-08-24T00:18:41;23.70;54.40
28959;DHT22;16066;0.000;0.000;2023-08-24T00:21:08;23.70;54.50
28959;DHT22;16066;0.000;0.000;2023-08-24T00:23:33;23.60;54.50
28959;DHT22;16066;0.000;0.000;2023-08-24T00:25:59;23.60;54.70
28959;DHT22;16066;0.000;0.000;2023-08-24T00:28:25;23.60;54.70
28959;DHT22;16066;0.000;0.000;2023-08-24T00:30:51;23.60;54.70
28959;DHT22;16066;0.000;0.000;2023-08-24T00:33:17;23.50;54.60
28959;DHT22;16066;0.000;0.000;2023-08-24T00:35:42;23.50;54.50
28959;DHT22;16066;0.000;0.000;2023-08-24T00:38:08;23.50;54.60
28959;DHT22;16066;0.000;0.000;2023-08-24T00:40:34;23.50;54.60
28959;DHT22;16066;0.000;0.000;2023-08-24T00:42:59;23.50;54.60
28959;DHT22;16066;0.000;0.000;2023-08-24T00:45:25;23.50;54.60
28959;DHT22;16066;0.000;0.000;2023-08-24T00:47:51;23.50;54.70
28959;DHT22;16066;0.000;0.000;2023-08-24T00:50:17;23.50;54.70
28959;DHT22;16066;0.000;0.000;2023-08-24T00:52:43;23.50;54.80
28959;DHT22;16066;0.000;0.000;2023-08-24T00:55:10;23.50;54.80
28959;DHT22;16066;0.000;0.000;2023-08-24T00:57:37;23.40;54.70
28959;DHT22;16066;0.000;0.000;2023-08-24T01:00:05;23.40;54.90
28959;DHT22;16066;0.000;0.000;2023-08-24T01:02:31;23.40;54.90
28959;DHT22;16066;0.000;0.000;2023-08-24T01:04:58;23.40;54.90
28959;DHT22;16066;0.000;0.000;2023-08-24T01:07:24;23.40;54.90
28959;DHT22;16066;0.000;0.000;2023-08-24T01:09:50;23.40;54.90
28959;DHT22;16066;0.000;0.000;2023-08-24T01:15:16;23.30;54.90
28959;DHT22;16066;0.000;0.000;2023-08-24T01:17:43;23.30;55.00
28959;DHT22;16066;0.000;0.000;2023-08-24T01:20:10;23.30;55.10
28959;DHT22;16066;0.000;0.000;2023-08-24T01:23:04;23.30;55.10
28959;DHT22;16066;0.000;0.000;2023-08-24T01:25:42;23.20;55.20
28959;DHT22;16066;0.000;0.000;2023-08-24T01:28:11;23.20;55.30
28959;DHT22;16066;0.000;0.000;2023-08-24T01:30:38;23.20;55.40
28959;DHT22;16066;0.000;0.000;2023-08-24T01:33:04;23.10;56.10
28959;DHT22;16066;0.000;0.000;2023-08-24T01:35:30;23.10;55.30
28959;DHT22;16066;0.000;0.000;2023-08-24T01:37:58;23.10;55.20
28959;DHT22;16066;0.000;0.000;2023-08-24T01:40:52;23.10;55.20
28959;DHT22;16066;0.000;0.000;2023-08-24T01:43:20;23.00;55.20
28959;DHT22;16066;0.000;0.000;2023-08-24T01:45:47;22.90;55.80
28959;DHT22;16066;0.000;0.000;2023-08-24T01:48:13;22.80;56.00
28959;DHT22;16066;0.000;0.000;2023-08-24T01:50:40;22.90;55.80
28959;DHT22;16066;0.000;0.000;2023-08-24T01:53:06;22.90;55.80
28959;DHT22;16066;0.000;0.000;2023-08-24T01:55:32;22.90;55.80
28959;DHT22;16066;0.000;0.000;2023-08-24T01:57:58;23.00;55.60
28959;DHT22;16066;0.000;0.000;2023-08-24T02:00:23;23.00;56.20
28959;DHT22;16066;0.000;0.000;2023-08-24T02:02:49;23.00;55.60
28959;DHT22;16066;0.000;0.000;2023-08-24T02:05:14;22.90;55.40
28959;DHT22;16066;0.000;0.000;2023-08-24T02:07:40;22.90;55.60
28959;DHT22;16066;0.000;0.000;2023-08-24T02:10:06;22.90;55.60
28959;DHT22;16066;0.000;0.000;2023-08-24T02:12:32;22.90;55.70
28959;DHT22;16066;0.000;0.000;2023-08-24T02:14:58;22.80;55.60
28959;DHT22;16066;0.000;0.000;2023-08-24T02:17:23;22.80;55.60
28959;DHT22;16066;0.000;0.000;2023-08-24T02:19:49;22.80;55.70
28959;DHT22;16066;0.000;0.000;2023-08-24T02:22:15;22.80;55.60
28959;DHT22;16066;0.000;0.000;2023-08-24T02:24:41;22.80;55.60
28959;DHT22;16066;0.000;0.000;2023-08-24T02:27:06;22.80;55.50
28959;DHT22;16066;0.000;0.000;2023-08-24T02:29:32;22.80;55.40
28959;DHT22;16066;0.000;0.000;2023-08-24T02:31:57;22.80;55.50
28959;DHT22;16066;0.000;0.000;2023-08-24T02:34:23;22.80;55.50
28959;DHT22;16066;0.000;0.000;2023-08-24T02:36:48;22.80;55.50
28959;DHT22;16066;0.000;0.000;2023-08-24T02:39:14;22.80;55.70
28959;DHT22;16066;0.000;0.000;2023-08-24T02:41:40;22.80;55.60
28959;DHT22;16066;0.000;0.000;2023-08-24T02:44:05;22.70;55.60
28959;DHT22;16066;0.000;0.000;2023-08-24T02:46:31;22.80;55.70
28959;DHT22;16066;0.000;0.000;2023-08-24T02:48:56;22.80;55.60
28959;DHT22;16066;0.000;0.000;2023-08-24T02:51:22;22.80;55.60
28959;DHT22;16066;0.000;0.000;2023-08-24T02:53:49;22.80;55.70
28959;DHT22;16066;0.000;0.000;2023-08-24T02:56:14;22.70;55.60
28959;DHT22;16066;0.000;0.000;2023-08-24T02:58:40;22.80;55.70
28959;DHT22;16066;0.000;0.000;2023-08-24T03:01:06;22.80;55.60
28959;DHT22;16066;0.000;0.000;2023-08-24T03:03:36;22.80;56.30
28959;DHT22;16066;0.000;0.000;2023-08-24T03:06:04;22.70;55.60
28959;DHT22;16066;0.000;0.000;2023-08-24T03:08:30;22.70;55.70
28959;DHT22;16066;0.000;0.000;2023-08-24T03:10:57;22.70;55.60
28959;DHT22;16066;0.000;0.000;2023-08-24T03:13:22;22.70;55.70
28959;DHT22;16066;0.000;0.000;2023-08-24T03:15:49;22.70;55.70
28959;DHT22;16066;0.000;0.000;2023-08-24T03:18:16;22.70;55.80
28959;DHT22;16066;0.000;0.000;2023-08-24T03:20:43;22.60;55.80
28959;DHT22;16066;0.000;0.000;2023-08-24T03:23:08;22.60;55.90
28959;DHT22;16066;0.000;0.000;2023-08-24T03:25:38;22.70;56.00
28959;DHT22;16066;0.000;0.000;2023-08-24T03:28:05;22.60;55.90
28959;DHT22;16066;0.000;0.000;2023-08-24T03:30:30;22.60;55.90
28959;DHT22;16066;0.000;0.000;2023-08-24T03:32:56;22.60;56.00
28959;DHT22;16066;0.000;0.000;2023-08-24T03:35:22;22.60;56.00
28959;DHT22;16066;0.000;0.000;2023-08-24T03:37:47;22.60;56.20
28959;DHT22;16066;0.000;0.000;2023-08-24T03:40:13;22.60;56.00
28959;DHT22;16066;0.000;0.000;2023-08-24T03:42:38;22.60;55.90
28959;DHT22;16066;0.000;0.000;2023-08-24T03:45:05;22.60;55.90
28959;DHT22;16066;0.000;0.000;2023-08-24T03:47:31;22.60;55.80
28959;DHT22;16066;0.000;0.000;2023-08-24T03:49:56;22.60;55.80
28959;DHT22;16066;0.000;0.000;2023-08-24T03:52:22;22.50;56.40
28959;DHT22;16066;0.000;0.000;2023-08-24T03:54:47;22.50;56.30
28959;DHT22;16066;0.000;0.000;2023-08-24T03:57:13;22.50;56.00
28959;DHT22;16066;0.000;0.000;2023-08-24T03:59:39;22.50;56.30
28959;DHT22;16066;0.000;0.000;2023-08-24T04:02:04;22.50;56.50
28959;DHT22;16066;0.000;0.000;2023-08-24T04:04:30;22.40;56.40
28959;DHT22;16066;0.000;0.000;2023-08-24T04:06:56;22.50;56.40
28959;DHT22;16066;0.000;0.000;2023-08-24T04:09:21;22.50;56.20
28959;DHT22;16066;0.000;0.000;2023-08-24T04:11:47;22.50;56.10
28959;DHT22;16066;0.000;0.000;2023-08-24T04:14:12;22.50;56.20
28959;DHT22;16066;0.000;0.000;2023-08-24T04:16:39;22.50;56.30
28959;DHT22;16066;0.000;0.000;2023-08-24T04:19:05;22.50;56.40
28959;DHT22;16066;0.000;0.000;2023-08-24T04:21:30;22.40;56.40
28959;DHT22;16066;0.000;0.000;2023-08-24T04:23:56;22.40;56.50
28959;DHT22;16066;0.000;0.000;2023-08-24T04:26:21;22.40;56.50
28959;DHT22;16066;0.000;0.000;2023-08-24T04:28:47;22.40;56.60
28959;DHT22;16066;0.000;0.000;2023-08-24T04:31:12;22.30;56.60
28959;DHT22;16066;0.000;0.000;2023-08-24T04:33:38;22.30;56.60
28959;DHT22;16066;0.000;0.000;2023-08-24T04:36:04;22.30;56.60
28959;DHT22;16066;0.000;0.000;2023-08-24T04:38:29;22.20;56.60
28959;DHT22;16066;0.000;0.000;2023-08-24T04:40:56;22.20;56.60
28959;DHT22;16066;0.000;0.000;2023-08-24T04:43:23;22.20;56.50
28959;DHT22;16066;0.000;0.000;2023-08-24T04:45:50;22.30;56.60
28959;DHT22;16066;0.000;0.000;2023-08-24T04:48:18;22.30;56.70
28959;DHT22;16066;0.000;0.000;2023-08-24T04:50:44;22.30;56.80
28959;DHT22;16066;0.000;0.000;2023-08-24T04:53:13;22.30;56.80
28959;DHT22;16066;0.000;0.000;2023-08-24T04:55:39;22.30;57.00
28959;DHT22;16066;0.000;0.000;2023-08-24T04:58:06;22.30;57.20
28959;DHT22;16066;0.000;0.000;2023-08-24T05:00:32;22.30;57.40
28959;DHT22;16066;0.000;0.000;2023-08-24T05:02:58;22.30;57.40
28959;DHT22;16066;0.000;0.000;2023-08-24T05:05:24;22.30;57.60
28959;DHT22;16066;0.000;0.000;2023-08-24T05:07:50;22.20;57.60
28959;DHT22;16066;0.000;0.000;2023-08-24T05:10:15;22.30;58.90
28959;DHT22;16066;0.000;0.000;2023-08-24T05:12:41;22.20;57.90
28959;DHT22;16066;0.000;0.000;2023-08-24T05:15:07;22.10;58.00
28959;DHT22;16066;0.000;0.000;2023-08-24T05:17:32;22.10;58.30
28959;DHT22;16066;0.000;0.000;2023-08-24T05:19:58;22.00;58.60
28959;DHT22;16066;0.000;0.000;2023-08-24T05:22:24;22.00;58.90
28959;DHT22;16066;0.000;0.000;2023-08-24T05:24:49;22.00;59.00
28959;DHT22;16066;0.000;0.000;2023-08-24T05:27:15;22.00;59.20
28959;DHT22;16066;0.000;0.000;2023-08-24T05:29:41;22.00;59.60
28959;DHT22;16066;0.000;0.000;2023-08-24T05:32:07;22.00;60.10
28959;DHT22;16066;0.000;0.000;2023-08-24T05:34:33;22.00;60.40
28959;DHT22;16066;0.000;0.000;2023-08-24T05:36:58;22.00;61.10
28959;DHT22;16066;0.000;0.000;2023-08-24T05:39:24;22.00;61.20
28959;DHT22;16066;0.000;0.000;2023-08-24T05:41:51;21.90;60.90
28959;DHT22;16066;0.000;0.000;2023-08-24T05:44:19;22.00;60.90
28959;DHT22;16066;0.000;0.000;2023-08-24T05:46:46;22.00;60.40
28959;DHT22;16066;0.000;0.000;2023-08-24T05:49:11;22.10;60.40
28959;DHT22;16066;0.000;0.000;2023-08-24T05:51:37;22.10;60.30
28959;DHT22;16066;0.000;0.000;2023-08-24T05:54:02;22.10;61.10
28959;DHT22;16066;0.000;0.000;2023-08-24T05:56:28;22.10;61.30
28959;DHT22;16066;0.000;0.000;2023-08-24T05:58:54;22.20;61.10
28959;DHT22;16066;0.000;0.000;2023-08-24T06:01:20;22.20;61.00
28959;DHT22;16066;0.000;0.000;2023-08-24T06:03:46;22.30;61.00
28959;DHT22;16066;0.000;0.000;2023-08-24T06:06:11;22.30;61.50
28959;DHT22;16066;0.000;0.000;2023-08-24T06:08:37;22.40;61.20
28959;DHT22;16066;0.000;0.000;2023-08-24T06:11:03;22.40;61.30
28959;DHT22;16066;0.000;0.000;2023-08-24T06:13:28;22.50;61.60
28959;DHT22;16066;0.000;0.000;2023-08-24T06:15:54;22.50;62.40
28959;DHT22;16066;0.000;0.000;2023-08-24T06:18:20;22.40;62.10
28959;DHT22;16066;0.000;0.000;2023-08-24T06:20:46;22.50;62.00
28959;DHT22;16066;0.000;0.000;2023-08-24T06:23:15;22.50;62.20
28959;DHT22;16066;0.000;0.000;2023-08-24T06:25:41;22.50;61.80
28959;DHT22;16066;0.000;0.000;2023-08-24T06:28:06;22.60;61.00
28959;DHT22;16066;0.000;0.000;2023-08-24T06:30:40;22.70;61.10
28959;DHT22;16066;0.000;0.000;2023-08-24T06:33:06;22.80;61.10
28959;DHT22;16066;0.000;0.000;2023-08-24T06:35:35;22.80;60.70
28959;DHT22;16066;0.000;0.000;2023-08-24T06:38:02;22.80;60.30
28959;DHT22;16066;0.000;0.000;2023-08-24T06:40:28;22.90;60.10
28959;DHT22;16066;0.000;0.000;2023-08-24T06:42:53;22.90;59.90
28959;DHT22;16066;0.000;0.000;2023-08-24T06:45:19;22.90;59.80
28959;DHT22;16066;0.000;0.000;2023-08-24T06:47:44;22.90;59.60
28959;DHT22;16066;0.000;0.000;2023-08-24T06:50:11;22.90;59.60
28959;DHT22;16066;0.000;0.000;2023-08-24T06:52:36;22.90;59.50
28959;DHT22;16066;0.000;0.000;2023-08-24T06:55:02;23.00;59.50
28959;DHT22;16066;0.000;0.000;2023-08-24T06:57:29;23.00;59.80
28959;DHT22;16066;0.000;0.000;2023-08-24T06:59:54;23.00;59.60
28959;DHT22;16066;0.000;0.000;2023-08-24T07:02:20;23.00;60.30
28959;DHT22;16066;0.000;0.000;2023-08-24T07:04:45;23.00;59.70
28959;DHT22;16066;0.000;0.000;2023-08-24T07:07:11;23.10;60.10
28959;DHT22;16066;0.000;0.000;2023-08-24T07:09:37;23.10;60.00
28959;DHT22;16066;0.000;0.000;2023-08-24T07:12:03;23.20;60.30
28959;DHT22;16066;0.000;0.000;2023-08-24T07:14:31;23.20;60.00
28959;DHT22;16066;0.000;0.000;2023-08-24T07:16:57;23.20;59.80
28959;DHT22;16066;0.000;0.000;2023-08-24T07:19:22;23.20;59.60
28959;DHT22;16066;0.000;0.000;2023-08-24T07:21:48;23.30;59.60
28959;DHT22;16066;0.000;0.000;2023-08-24T07:24:14;23.30;59.60
28959;DHT22;16066;0.000;0.000;2023-08-24T07:26:41;23.30;59.70
28959;DHT22;16066;0.000;0.000;2023-08-24T07:29:07;23.40;59.60
28959;DHT22;16066;0.000;0.000;2023-08-24T07:31:33;23.40;59.00
28959;DHT22;16066;0.000;0.000;2023-08-24T07:33:59;23.40;59.00
28959;DHT22;16066;0.000;0.000;2023-08-24T07:36:24;23.50;59.10
28959;DHT22;16066;0.000;0.000;2023-08-24T07:38:50;23.50;59.00
28959;DHT22;16066;0.000;0.000;2023-08-24T07:41:15;23.50;58.90
28959;DHT22;16066;0.000;0.000;2023-08-24T07:43:43;23.50;58.80
28959;DHT22;16066;0.000;0.000;2023-08-24T07:46:09;23.50;58.70
28959;DHT22;16066;0.000;0.000;2023-08-24T07:48:35;23.50;58.20
28959;DHT22;16066;0.000;0.000;2023-08-24T07:51:01;23.60;58.20
28959;DHT22;16066;0.000;0.000;2023-08-24T07:53:26;23.60;58.50
28959;DHT22;16066;0.000;0.000;2023-08-24T07:55:54;23.70;59.00
28959;DHT22;16066;0.000;0.000;2023-08-24T07:58:20;23.70;58.10
28959;DHT22;16066;0.000;0.000;2023-08-24T08:00:49;23.80;58.50
28959;DHT22;16066;0.000;0.000;2023-08-24T08:03:15;23.80;58.00
28959;DHT22;16066;0.000;0.000;2023-08-24T08:05:41;23.80;57.90
28959;DHT22;16066;0.000;0.000;2023-08-24T08:08:06;23.90;57.80
28959;DHT22;16066;0.000;0.000;2023-08-24T08:10:32;23.90;57.30
28959;DHT22;16066;0.000;0.000;2023-08-24T08:12:57;23.90;57.40
28959;DHT22;16066;0.000;0.000;2023-08-24T08:15:23;24.00;57.20
28959;DHT22;16066;0.000;0.000;2023-08-24T08:17:48;24.00;57.20
28959;DHT22;16066;0.000;0.000;2023-08-24T08:20:15;24.00;56.80
28959;DHT22;16066;0.000;0.000;2023-08-24T08:22:41;24.00;56.80
28959;DHT22;16066;0.000;0.000;2023-08-24T08:25:07;24.10;56.80
28959;DHT22;16066;0.000;0.000;2023-08-24T08:27:32;24.10;56.30
28959;DHT22;16066;0.000;0.000;2023-08-24T08:30:01;24.10;56.30
28959;DHT22;16066;0.000;0.000;2023-08-24T08:32:30;24.10;56.30
28959;DHT22;16066;0.000;0.000;2023-08-24T08:34:55;24.20;56.30
28959;DHT22;16066;0.000;0.000;2023-08-24T08:37:23;24.20;56.10
28959;DHT22;16066;0.000;0.000;2023-08-24T08:39:49;24.20;56.00
28959;DHT22;16066;0.000;0.000;2023-08-24T08:42:14;24.30;56.00
28959;DHT22;16066;0.000;0.000;2023-08-24T08:44:42;24.30;56.00
28959;DHT22;16066;0.000;0.000;2023-08-24T08:47:10;24.30;55.90
28959;DHT22;16066;0.000;0.000;2023-08-24T08:49:38;24.40;56.00
28959;DHT22;16066;0.000;0.000;2023-08-24T08:52:05;24.40;55.70
28959;DHT22;16066;0.000;0.000;2023-08-24T08:54:31;24.50;55.80
28959;DHT22;16066;0.000;0.000;2023-08-24T08:56:58;24.50;55.70
28959;DHT22;16066;0.000;0.000;2023-08-24T08:59:26;24.50;55.60
28959;DHT22;16066;0.000;0.000;2023-08-24T09:01:58;24.60;55.50
28959;DHT22;16066;0.000;0.000;2023-08-24T09:04:27;24.60;55.20
28959;DHT22;16066;0.000;0.000;2023-08-24T09:06:54;24.60;55.20
28959;DHT22;16066;0.000;0.000;2023-08-24T09:09:21;24.70;55.80
28959;DHT22;16066;0.000;0.000;2023-08-24T09:11:48;24.70;55.00
28959;DHT22;16066;0.000;0.000;2023-08-24T09:14:14;24.70;54.90
28959;DHT22;16066;0.000;0.000;2023-08-24T09:16:41;24.70;55.00
28959;DHT22;16066;0.000;0.000;2023-08-24T09:19:06;24.80;55.00
28959;DHT22;16066;0.000;0.000;2023-08-24T09:21:37;24.80;55.00
28959;DHT22;16066;0.000;0.000;2023-08-24T09:24:03;24.80;54.90
28959;DHT22;16066;0.000;0.000;2023-08-24T09:26:30;24.80;54.90
28959;DHT22;16066;0.000;0.000;2023-08-24T09:28:59;24.80;55.00
28959;DHT22;16066;0.000;0.000;2023-08-24T09:31:35;24.80;54.90
28959;DHT22;16066;0.000;0.000;2023-08-24T09:34:02;24.90;54.90
28959;DHT22;16066;0.000;0.000;2023-08-24T09:36:31;24.90;54.80
28959;DHT22;16066;0.000;0.000;2023-08-24T09:38:59;24.90;54.70
28959;DHT22;16066;0.000;0.000;2023-08-24T09:41:37;25.00;54.80
28959;DHT22;16066;0.000;0.000;2023-08-24T09:44:04;25.00;54.70
28959;DHT22;16066;0.000;0.000;2023-08-24T09:46:29;25.00;54.80
28959;DHT22;16066;0.000;0.000;2023-08-24T09:48:55;25.00;54.60
28959;DHT22;16066;0.000;0.000;2023-08-24T09:51:23;25.00;54.50
28959;DHT22;16066;0.000;0.000;2023-08-24T09:53:51;25.10;54.60
28959;DHT22;16066;0.000;0.000;2023-08-24T09:56:18;25.10;54.40
28959;DHT22;16066;0.000;0.000;2023-08-24T09:58:46;25.10;54.50
28959;DHT22;16066;0.000;0.000;2023-08-24T10:01:13;25.10;54.50
28959;DHT22;16066;0.000;0.000;2023-08-24T10:03:40;25.10;54.40
28959;DHT22;16066;0.000;0.000;2023-08-24T10:06:10;25.10;54.30
28959;DHT22;16066;0.000;0.000;2023-08-24T10:08:37;25.10;54.40
28959;DHT22;16066;0.000;0.000;2023-08-24T10:11:03;25.10;54.40
28959;DHT22;16066;0.000;0.000;2023-08-24T10:13:41;25.10;55.10
28959;DHT22;16066;0.000;0.000;2023-08-24T10:16:09;25.10;54.50
28959;DHT22;16066;0.000;0.000;2023-08-24T10:18:39;25.10;54.60
28959;DHT22;16066;0.000;0.000;2023-08-24T10:21:05;25.10;54.70
28959;DHT22;16066;0.000;0.000;2023-08-24T10:23:31;25.10;55.00
28959;DHT22;16066;0.000;0.000;2023-08-24T10:25:59;25.00;55.00
28959;DHT22;16066;0.000;0.000;2023-08-24T10:28:28;25.00;55.00
28959;DHT22;16066;0.000;0.000;2023-08-24T10:30:54;25.00;55.10
28959;DHT22;16066;0.000;0.000;2023-08-24T10:33:21;25.00;55.20
28959;DHT22;16066;0.000;0.000;2023-08-24T10:35:48;25.00;55.30
28959;DHT22;16066;0.000;0.000;2023-08-24T10:38:28;25.00;55.40
28959;DHT22;16066;0.000;0.000;2023-08-24T10:40:54;25.00;55.40
28959;DHT22;16066;0.000;0.000;2023-08-24T10:43:21;25.00;55.60
28959;DHT22;16066;0.000;0.000;2023-08-24T10:46:00;25.00;55.60
28959;DHT22;16066;0.000;0.000;2023-08-24T10:51:16;25.00;56.10
28959;DHT22;16066;0.000;0.000;2023-08-24T10:53:45;25.00;56.10
28959;DHT22;16066;0.000;0.000;2023-08-24T10:56:15;25.00;56.00
28959;DHT22;16066;0.000;0.000;2023-08-24T10:58:41;25.00;56.00
28959;DHT22;16066;0.000;0.000;2023-08-24T11:01:13;25.00;55.90
28959;DHT22;16066;0.000;0.000;2023-08-24T11:03:39;25.00;55.90
28959;DHT22;16066;0.000;0.000;2023-08-24T11:06:21;25.10;55.90
28959;DHT22;16066;0.000;0.000;2023-08-24T11:08:48;25.10;56.00
28959;DHT22;16066;0.000;0.000;2023-08-24T11:11:23;25.10;56.00
28959;DHT22;16066;0.000;0.000;2023-08-24T11:14:18;25.10;56.50
28959;DHT22;16066;0.000;0.000;2023-08-24T11:16:57;25.10;56.60
28959;DHT22;16066;0.000;0.000;2023-08-24T11:19:23;25.10;56.40
28959;DHT22;16066;0.000;0.000;2023-08-24T11:21:49;25.20;56.20
28959;DHT22;16066;0.000;0.000;2023-08-24T11:24:15;25.20;56.10
28959;DHT22;16066;0.000;0.000;2023-08-24T11:26:43;25.30;56.40
28959;DHT22;16066;0.000;0.000;2023-08-24T11:29:09;25.30;56.50
28959;DHT22;16066;0.000;0.000;2023-08-24T11:31:38;25.40;56.30
28959;DHT22;16066;0.000;0.000;2023-08-24T11:34:04;25.30;56.30
28959;DHT22;16066;0.000;0.000;2023-08-24T11:36:31;25.40;56.60
28959;DHT22;16066;0.000;0.000;2023-08-24T11:38:58;25.40;56.40
28959;DHT22;16066;0.000;0.000;2023-08-24T11:41:24;25.50;56.40
28959;DHT22;16066;0.000;0.000;2023-08-24T11:43:59;25.50;56.60
28959;DHT22;16066;0.000;0.000;2023-08-24T11:46:24;25.50;56.60
28959;DHT22;16066;0.000;0.000;2023-08-24T11:48:50;25.50;56.70
28959;DHT22;16066;0.000;0.000;2023-08-24T11:51:17;25.50;56.70
28959;DHT22;16066;0.000;0.000;2023-08-24T11:53:43;25.50;56.50
28959;DHT22;16066;0.000;0.000;2023-08-24T11:56:10;25.50;56.60
28959;DHT22;16066;0.000;0.000;2023-08-24T11:58:40;25.50;56.90
28959;DHT22;16066;0.000;0.000;2023-08-24T12:01:06;25.50;57.00
28959;DHT22;16066;0.000;0.000;2023-08-24T12:03:32;25.50;56.70
28959;DHT22;16066;0.000;0.000;2023-08-24T12:06:14;25.60;56.10
28959;DHT22;16066;0.000;0.000;2023-08-24T12:08:41;25.60;55.90
28959;DHT22;16066;0.000;0.000;2023-08-24T12:11:11;25.70;56.00
28959;DHT22;16066;0.000;0.000;2023-08-24T12:13:37;25.70;55.90
28959;DHT22;16066;0.000;0.000;2023-08-24T12:16:04;25.70;55.80
28959;DHT22;16066;0.000;0.000;2023-08-24T12:18:30;25.70;55.60
28959;DHT22;16066;0.000;0.000;2023-08-24T12:20:57;25.80;55.70
28959;DHT22;16066;0.000;0.000;2023-08-24T12:23:27;25.80;55.70
28959;DHT22;16066;0.000;0.000;2023-08-24T12:25:54;25.90;55.50
28959;DHT22;16066;0.000;0.000;2023-08-24T12:28:20;25.90;55.20
28959;DHT22;16066;0.000;0.000;2023-08-24T12:30:53;25.90;55.00
28959;DHT22;16066;0.000;0.000;2023-08-24T12:33:26;26.00;55.00
28959;DHT22;16066;0.000;0.000;2023-08-24T12:35:52;26.00;55.00
28959;DHT22;16066;0.000;0.000;2023-08-24T12:38:18;26.00;55.00
28959;DHT22;16066;0.000;0.000;2023-08-24T12:40:44;26.00;55.20
28959;DHT22;16066;0.000;0.000;2023-08-24T12:43:09;25.90;55.30
28959;DHT22;16066;0.000;0.000;2023-08-24T12:45:35;25.90;55.40
28959;DHT22;16066;0.000;0.000;2023-08-24T12:48:03;25.90;55.60
28959;DHT22;16066;0.000;0.000;2023-08-24T12:50:29;25.90;55.60
28959;DHT22;16066;0.000;0.000;2023-08-24T12:52:55;25.80;55.70
28959;DHT22;16066;0.000;0.000;2023-08-24T12:55:24;25.80;55.80
28959;DHT22;16066;0.000;0.000;2023-08-24T12:57:50;25.80;55.90
28959;DHT22;16066;0.000;0.000;2023-08-24T13:00:16;25.80;55.90
28959;DHT22;16066;0.000;0.000;2023-08-24T13:02:41;25.80;56.20
28959;DHT22;16066;0.000;0.000;2023-08-24T13:05:07;25.80;56.10
28959;DHT22;16066;0.000;0.000;2023-08-24T13:07:33;25.80;56.00
28959;DHT22;16066;0.000;0.000;2023-08-24T13:09:59;25.80;55.90
28959;DHT22;16066;0.000;0.000;2023-08-24T13:12:24;25.80;56.10
28959;DHT22;16066;0.000;0.000;2023-08-24T13:14:50;25.80;56.30
28959;DHT22;16066;0.000;0.000;2023-08-24T13:17:16;25.80;56.30
28959;DHT22;16066;0.000;0.000;2023-08-24T13:19:41;25.80;56.40
28959;DHT22;16066;0.000;0.000;2023-08-24T13:22:07;25.80;56.30
28959;DHT22;16066;0.000;0.000;2023-08-24T13:24:35;25.80;56.30
28959;DHT22;16066;0.000;0.000;2023-08-24T13:27:01;25.80;56.20
28959;DHT22;16066;0.000;0.000;2023-08-24T13:29:28;25.80;56.40
28959;DHT22;16066;0.000;0.000;2023-08-24T13:31:53;25.80;56.30
28959;DHT22;16066;0.000;0.000;2023-08-24T13:34:19;25.80;56.20
28959;DHT22;16066;0.000;0.000;2023-08-24T13:36:45;25.80;56.00
28959;DHT22;16066;0.000;0.000;2023-08-24T13:39:10;25.70;55.90
28959;DHT22;16066;0.000;0.000;2023-08-24T13:41:36;25.70;56.00
28959;DHT22;16066;0.000;0.000;2023-08-24T13:44:02;25.70;56.00
28959;DHT22;16066;0.000;0.000;2023-08-24T13:46:27;25.70;56.10
28959;DHT22;16066;0.000;0.000;2023-08-24T13:48:53;25.70;56.00
28959;DHT22;16066;0.000;0.000;2023-08-24T13:51:19;25.70;56.30
28959;DHT22;16066;0.000;0.000;2023-08-24T13:53:44;25.70;56.40
28959;DHT22;16066;0.000;0.000;2023-08-24T13:56:10;25.70;56.50
28959;DHT22;16066;0.000;0.000;2023-08-24T13:58:35;25.70;56.80
28959;DHT22;16066;0.000;0.000;2023-08-24T14:01:01;25.70;57.10
28959;DHT22;16066;0.000;0.000;2023-08-24T14:03:28;25.70;57.20
28959;DHT22;16066;0.000;0.000;2023-08-24T14:05:58;25.70;57.40
28959;DHT22;16066;0.000;0.000;2023-08-24T14:08:24;25.70;57.70
28959;DHT22;16066;0.000;0.000;2023-08-24T14:10:51;25.70;57.80
28959;DHT22;16066;0.000;0.000;2023-08-24T14:13:16;25.80;57.90
28959;DHT22;16066;0.000;0.000;2023-08-24T14:15:42;25.70;57.80
28959;DHT22;16066;0.000;0.000;2023-08-24T14:18:09;25.80;58.00
28959;DHT22;16066;0.000;0.000;2023-08-24T14:20:34;25.80;58.20
28959;DHT22;16066;0.000;0.000;2023-08-24T14:23:00;25.80;58.10
28959;DHT22;16066;0.000;0.000;2023-08-24T14:25:27;25.80;58.20
28959;DHT22;16066;0.000;0.000;2023-08-24T14:27:52;25.80;58.20
28959;DHT22;16066;0.000;0.000;2023-08-24T14:30:18;25.90;58.20
28959;DHT22;16066;0.000;0.000;2023-08-24T14:32:43;25.90;58.30
28959;DHT22;16066;0.000;0.000;2023-08-24T14:35:09;25.90;58.40
28959;DHT22;16066;0.000;0.000;2023-08-24T14:37:34;25.90;58.40
28959;DHT22;16066;0.000;0.000;2023-08-24T14:40:00;25.90;58.60
28959;DHT22;16066;0.000;0.000;2023-08-24T14:42:25;25.90;58.80
28959;DHT22;16066;0.000;0.000;2023-08-24T14:44:51;25.90;59.00
28959;DHT22;16066;0.000;0.000;2023-08-24T14:47:16;25.90;59.10
28959;DHT22;16066;0.000;0.000;2023-08-24T14:49:42;26.00;59.20
28959;DHT22;16066;0.000;0.000;2023-08-24T14:52:07;26.00;59.30
28959;DHT22;16066;0.000;0.000;2023-08-24T14:54:33;26.00;59.40
28959;DHT22;16066;0.000;0.000;2023-08-24T14:56:58;26.00;59.60
28959;DHT22;16066;0.000;0.000;2023-08-24T14:59:25;26.00;59.80
28959;DHT22;16066;0.000;0.000;2023-08-24T15:01:51;26.00;59.90
28959;DHT22;16066;0.000;0.000;2023-08-24T15:04:17;26.10;60.10
28959;DHT22;16066;0.000;0.000;2023-08-24T15:06:42;26.10;60.20
28959;DHT22;16066;0.000;0.000;2023-08-24T15:09:08;26.10;60.30
28959;DHT22;16066;0.000;0.000;2023-08-24T15:11:33;26.00;60.90
28959;DHT22;16066;0.000;0.000;2023-08-24T15:13:58;25.90;61.40
28959;DHT22;16066;0.000;0.000;2023-08-24T15:16:24;25.90;62.00
28959;DHT22;16066;0.000;0.000;2023-08-24T15:18:50;25.90;62.10
28959;DHT22;16066;0.000;0.000;2023-08-24T15:21:15;25.90;62.30
28959;DHT22;16066;0.000;0.000;2023-08-24T15:23:41;25.80;62.40
28959;DHT22;16066;0.000;0.000;2023-08-24T15:26:06;25.70;62.20
28959;DHT22;16066;0.000;0.000;2023-08-24T15:28:40;25.70;62.40
28959;DHT22;16066;0.000;0.000;2023-08-24T15:31:22;25.70;62.50
28959;DHT22;16066;0.000;0.000;2023-08-24T15:33:49;25.60;62.30
28959;DHT22;16066;0.000;0.000;2023-08-24T15:36:15;25.60;62.40
28959;DHT22;16066;0.000;0.000;2023-08-24T15:38:40;25.50;62.40
28959;DHT22;16066;0.000;0.000;2023-08-24T15:41:06;25.50;62.40
28959;DHT22;16066;0.000;0.000;2023-08-24T15:43:31;25.50;62.50
28959;DHT22;16066;0.000;0.000;2023-08-24T15:45:57;25.40;62.50
28959;DHT22;16066;0.000;0.000;2023-08-24T15:48:23;25.40;62.60